Time;durP1;ratioP1;P1;durP2;ratioP2;P2;SDS_P1;SDS_P2;PMS_P1;PMS_P2;Temp;Humidity;BMP_temperature;BMP_pressure;BME280_temperature;BME280_humidity;BME280_pressure;Samples;Min_cycle;Max_cycle;Signal;HPM_P1;HPM_P2
2021/09/08 00:00:50;;;;;;;7.90;5.25;;;18.20;90.20;;;;;;5048366;28;20036;-80
2021/09/08 00:03:16;;;;;;;6.38;5.47;;;18.10;90.20;;;;;;5085673;28;20399;-83
2021/09/08 00:05:44;;;;;;;8.20;6.22;;;18.10;90.20;;;;;;5017253;28;20059;-81
2021/09/08 00:08:10;;;;;;;6.65;5.50;;;18.10;90.20;;;;;;5083821;28;20039;-83
2021/09/08 00:10:37;;;;;;;7.40;5.82;;;18.10;90.20;;;;;;5067582;28;20039;-81
2021/09/08 00:13:03;;;;;;;9.82;7.35;;;18.00;90.20;;;;;;5048928;28;20039;-85
2021/09/08 00:15:30;;;;;;;8.30;6.40;;;18.00;90.30;;;;;;5067693;28;20032;-82
2021/09/08 00:17:56;;;;;;;7.47;6.65;;;17.90;90.40;;;;;;5066014;28;20403;-81
2021/09/08 00:20:23;;;;;;;9.73;6.43;;;17.90;90.30;;;;;;5069994;28;20044;-82
2021/09/08 00:22:49;;;;;;;24.15;19.90;;;17.90;90.40;;;;;;5071826;28;20044;-81
2021/09/08 00:25:16;;;;;;;45.55;35.45;;;17.90;90.40;;;;;;5054459;28;20044;-81
2021/09/08 00:27:42;;;;;;;26.77;20.92;;;17.90;90.40;;;;;;5088926;28;20032;-79
2021/09/08 00:30:11;;;;;;;16.58;13.07;;;17.80;90.50;;;;;;5034797;28;20047;-82
2021/09/08 00:32:39;;;;;;;15.00;10.00;;;17.80;90.50;;;;;;5054195;28;20044;-82
2021/09/08 00:35:06;;;;;;;8.38;6.85;;;17.80;90.50;;;;;;5053025;28;20040;-82
2021/09/08 00:37:37;;;;;;;8.48;6.93;;;17.80;90.50;;;;;;5053920;28;20407;-82
2021/09/08 00:40:04;;;;;;;20.00;15.32;;;17.80;90.50;;;;;;5069768;28;20085;-82
2021/09/08 00:42:32;;;;;;;10.15;7.60;;;17.80;90.50;;;;;;5051194;28;20051;-82
2021/09/08 00:45:06;;;;;;;10.85;7.97;;;17.70;90.50;;;;;;5087685;28;20035;-82
2021/09/08 00:47:32;;;;;;;8.43;6.63;;;17.80;90.80;;;;;;5035795;28;20048;-82
2021/09/08 00:49:59;;;;;;;9.60;6.72;;;17.70;90.80;;;;;;5069594;28;20047;-82
2021/09/08 00:52:25;;;;;;;6.65;5.45;;;17.70;90.80;;;;;;5070895;28;20060;-82
2021/09/08 00:54:55;;;;;;;6.45;5.28;;;17.70;90.80;;;;;;5070537;28;20506;-82
2021/09/08 00:57:25;;;;;;;6.50;5.25;;;17.70;90.80;;;;;;5057537;28;20028;-82
2021/09/08 00:59:52;;;;;;;7.32;5.57;;;17.60;90.90;;;;;;5051273;28;20040;-81
2021/09/08 01:02:19;;;;;;;6.72;5.63;;;17.60;91.00;;;;;;5087502;28;20035;-82
2021/09/08 01:04:46;;;;;;;8.45;6.38;;;17.50;91.10;;;;;;5036547;28;20056;-82
2021/09/08 01:07:13;;;;;;;6.28;5.05;;;17.50;91.10;;;;;;5053617;28;20047;-82
2021/09/08 01:09:40;;;;;;;13.68;7.32;;;17.50;91.10;;;;;;5062978;28;20044;-83
2021/09/08 01:12:11;;;;;;;6.88;4.88;;;17.50;91.20;;;;;;5089150;28;20028;-82
2021/09/08 01:14:40;;;;;;;7.93;6.50;;;17.50;91.20;;;;;;5053885;28;20044;-81
2021/09/08 01:17:07;;;;;;;10.95;8.15;;;17.50;91.20;;;;;;5086856;28;20028;-81
2021/09/08 01:19:33;;;;;;;11.60;7.05;;;17.50;91.30;;;;;;5050096;28;20048;-81
2021/09/08 01:21:59;;;;;;;7.95;6.05;;;17.50;91.30;;;;;;5040559;28;20043;-82
2021/09/08 01:24:26;;;;;;;10.68;7.18;;;17.50;91.30;;;;;;5053451;28;20161;-81
2021/09/08 01:26:55;;;;;;;9.95;6.82;;;17.40;91.40;;;;;;5029772;28;20055;-81
2021/09/08 01:29:23;;;;;;;8.77;7.25;;;17.40;91.50;;;;;;5086906;28;20036;-81
2021/09/08 01:31:58;;;;;;;11.48;7.00;;;17.40;91.60;;;;;;5052193;28;20058;-81
2021/09/08 01:34:25;;;;;;;8.10;6.13;;;17.40;91.70;;;;;;5052982;28;20048;-81
2021/09/08 01:36:52;;;;;;;9.25;6.68;;;17.30;91.70;;;;;;5052668;28;20044;-81
2021/09/08 01:39:20;;;;;;;10.15;8.02;;;17.30;91.80;;;;;;5067993;28;20833;-82
2021/09/08 01:41:48;;;;;;;11.88;8.65;;;17.30;91.90;;;;;;5053647;28;20035;-81
2021/09/08 01:44:23;;;;;;;9.85;7.63;;;17.30;92.00;;;;;;5069975;28;20039;-81
2021/09/08 01:46:52;;;;;;;11.63;8.43;;;17.20;92.10;;;;;;5070230;28;20047;-81
2021/09/08 01:49:19;;;;;;;9.70;8.07;;;17.30;92.10;;;;;;5035539;28;20062;-81
2021/09/08 01:51:46;;;;;;;11.85;9.52;;;17.20;92.20;;;;;;5088568;28;20044;-81
2021/09/08 01:54:12;;;;;;;10.68;8.10;;;17.20;92.70;;;;;;5052023;28;20036;-81
2021/09/08 01:56:39;;;;;;;10.25;8.05;;;17.20;92.40;;;;;;5069508;28;20122;-81
2021/09/08 01:59:06;;;;;;;10.43;8.40;;;17.20;92.50;;;;;;5050699;28;20044;-81
2021/09/08 02:01:33;;;;;;;10.80;7.57;;;17.10;92.50;;;;;;5070808;28;20043;-81
2021/09/08 02:03:59;;;;;;;8.27;6.80;;;17.10;92.50;;;;;;5053930;28;20032;-81
2021/09/08 02:06:27;;;;;;;12.32;8.75;;;17.10;92.60;;;;;;5054485;28;20040;-81
2021/09/08 02:08:59;;;;;;;10.00;8.48;;;17.10;92.70;;;;;;5069037;28;20028;-82
2021/09/08 02:11:27;;;;;;;10.57;7.65;;;17.10;92.80;;;;;;5058313;28;20036;-81
2021/09/08 02:13:54;;;;;;;10.63;7.88;;;17.00;92.70;;;;;;5058580;28;20059;-81
2021/09/08 02:16:21;;;;;;;8.95;7.50;;;17.00;92.70;;;;;;5059379;28;20036;-82
2021/09/08 02:18:49;;;;;;;11.05;8.80;;;17.00;92.80;;;;;;5087070;28;20047;-81
2021/09/08 02:21:16;;;;;;;11.88;8.05;;;16.90;92.90;;;;;;5079499;28;20058;-81
2021/09/08 02:23:43;;;;;;;11.43;8.18;;;16.90;92.90;;;;;;5036528;28;20044;-81
2021/09/08 02:26:09;;;;;;;9.90;8.25;;;16.90;93.00;;;;;;5070830;28;20068;-81
2021/09/08 02:28:35;;;;;;;13.63;8.40;;;16.90;93.10;;;;;;5050748;28;20040;-81
2021/09/08 02:31:02;;;;;;;8.00;6.28;;;16.90;93.20;;;;;;5087696;28;20031;-81
2021/09/08 02:33:28;;;;;;;12.13;9.50;;;16.90;93.20;;;;;;5084652;28;20036;-81
2021/09/08 02:35:55;;;;;;;13.45;9.27;;;16.80;93.30;;;;;;5068911;28;20039;-81
2021/09/08 02:38:21;;;;;;;11.32;8.63;;;16.80;93.30;;;;;;5064381;28;20459;-77
2021/09/08 02:40:48;;;;;;;13.93;9.73;;;16.80;93.40;;;;;;5033498;28;20051;-76
2021/09/08 02:43:14;;;;;;;10.18;7.70;;;16.80;93.50;;;;;;5037449;28;20040;-77
2021/09/08 02:45:41;;;;;;;10.77;8.48;;;16.80;93.50;;;;;;5017933;28;20048;-76
2021/09/08 02:48:07;;;;;;;9.80;7.82;;;16.70;93.50;;;;;;5047073;28;20079;-76
2021/09/08 02:50:33;;;;;;;11.90;9.45;;;16.70;93.60;;;;;;5064084;28;20039;-77
2021/09/08 02:53:00;;;;;;;16.67;11.27;;;16.70;93.70;;;;;;5034132;28;20028;-77
2021/09/08 02:55:26;;;;;;;11.52;9.80;;;16.70;93.90;;;;;;5048943;28;20503;-77
2021/09/08 02:57:53;;;;;;;14.70;9.15;;;16.70;94.00;;;;;;5049360;28;20036;-76
2021/09/08 03:00:19;;;;;;;11.88;8.65;;;16.60;94.00;;;;;;5030087;28;20055;-76
2021/09/08 03:02:46;;;;;;;13.30;9.75;;;16.60;94.00;;;;;;5047949;28;20130;-76
2021/09/08 03:05:12;;;;;;;12.50;8.77;;;16.60;94.10;;;;;;5063975;28;20054;-76
2021/09/08 03:07:39;;;;;;;11.85;9.43;;;16.60;94.10;;;;;;5015515;28;20044;-76
2021/09/08 03:10:05;;;;;;;12.52;9.90;;;16.60;94.20;;;;;;5045573;28;20039;-76
2021/09/08 03:12:32;;;;;;;11.73;9.60;;;16.60;94.20;;;;;;5033298;28;20036;-76
2021/09/08 03:14:58;;;;;;;11.15;8.27;;;16.60;94.30;;;;;;5018158;28;20242;-76
2021/09/08 03:17:25;;;;;;;12.98;10.02;;;16.50;94.30;;;;;;5048079;28;20483;-77
2021/09/08 03:19:51;;;;;;;11.88;8.75;;;16.50;94.50;;;;;;5066474;28;20040;-81
2021/09/08 03:22:18;;;;;;;10.20;8.40;;;16.50;94.50;;;;;;5086993;28;20039;-81
2021/09/08 03:24:44;;;;;;;10.20;8.30;;;16.50;94.50;;;;;;5068776;28;20051;-81
2021/09/08 03:27:10;;;;;;;11.27;9.02;;;16.40;94.50;;;;;;5084660;28;20055;-81
2021/09/08 03:29:37;;;;;;;11.18;8.90;;;16.40;94.60;;;;;;5066273;28;20035;-81
2021/09/08 03:32:03;;;;;;;12.48;8.23;;;16.40;94.60;;;;;;5068529;28;20047;-81
2021/09/08 03:34:30;;;;;;;11.75;8.90;;;16.30;94.70;;;;;;5051001;28;20067;-81
2021/09/08 03:36:56;;;;;;;14.65;10.10;;;16.30;94.70;;;;;;5051570;28;20028;-81
2021/09/08 03:39:22;;;;;;;10.73;8.55;;;16.30;94.80;;;;;;5063435;28;20047;-77
2021/09/08 03:41:49;;;;;;;13.40;8.65;;;16.30;94.80;;;;;;5048821;28;20415;-76
2021/09/08 03:44:15;;;;;;;11.65;9.10;;;16.30;94.90;;;;;;5047862;28;20047;-76
2021/09/08 03:46:42;;;;;;;11.55;8.95;;;16.20;94.90;;;;;;5048554;28;20048;-76
2021/09/08 03:49:08;;;;;;;11.30;9.18;;;16.20;95.20;;;;;;5046539;28;20509;-76
2021/09/08 03:51:34;;;;;;;14.95;10.25;;;16.20;95.10;;;;;;5048330;28;20590;-76
2021/09/08 03:54:01;;;;;;;13.13;10.18;;;16.20;95.20;;;;;;5048536;28;20032;-80
2021/09/08 03:56:27;;;;;;;12.38;10.20;;;16.20;95.30;;;;;;5065944;28;20032;-81
2021/09/08 03:58:54;;;;;;;11.05;9.02;;;16.10;95.30;;;;;;5064572;28;20403;-81
2021/09/08 04:01:20;;;;;;;13.55;10.38;;;16.10;95.40;;;;;;5082332;28;20047;-81
2021/09/08 04:03:47;;;;;;;11.55;8.70;;;16.10;95.50;;;;;;5049238;28;20580;-81
2021/09/08 04:06:15;;;;;;;13.55;9.18;;;16.10;95.50;;;;;;5065290;28;20048;-80
2021/09/08 04:08:41;;;;;;;11.00;8.75;;;16.00;95.50;;;;;;5064153;28;20032;-81
2021/09/08 04:11:08;;;;;;;10.48;8.77;;;16.00;95.50;;;;;;5066428;28;20483;-81
2021/09/08 04:13:36;;;;;;;11.68;9.02;;;16.00;95.50;;;;;;5066641;28;20032;-81
2021/09/08 04:16:03;;;;;;;12.60;9.32;;;16.00;95.60;;;;;;5063129;28;20098;-81
2021/09/08 04:18:30;;;;;;;12.15;8.85;;;15.90;95.60;;;;;;5048236;28;20063;-81
2021/09/08 04:20:56;;;;;;;12.13;8.82;;;15.90;95.60;;;;;;5066151;28;20048;-76
2021/09/08 04:23:23;;;;;;;11.57;9.25;;;15.90;95.70;;;;;;5048638;28;20040;-77
2021/09/08 04:25:49;;;;;;;10.35;8.73;;;15.90;95.70;;;;;;5065589;28;20036;-76
2021/09/08 04:28:15;;;;;;;11.50;9.55;;;15.90;95.80;;;;;;5034437;28;20040;-76
2021/09/08 04:30:42;;;;;;;13.43;9.77;;;15.90;95.90;;;;;;5022322;28;20059;-76
2021/09/08 04:33:08;;;;;;;16.88;10.55;;;15.80;96.00;;;;;;5020123;28;20047;-76
2021/09/08 04:35:35;;;;;;;14.95;10.65;;;15.80;96.10;;;;;;5032641;28;20044;-76
2021/09/08 04:38:01;;;;;;;13.27;9.98;;;15.80;96.10;;;;;;5027411;28;20048;-76
2021/09/08 04:40:28;;;;;;;13.40;10.50;;;15.80;96.20;;;;;;5050646;28;20044;-77
2021/09/08 04:42:54;;;;;;;12.30;9.38;;;15.80;96.20;;;;;;5083677;28;20035;-76
2021/09/08 04:45:21;;;;;;;7.15;5.95;;;15.80;96.20;;;;;;5032042;28;20048;-76
2021/09/08 04:47:47;;;;;;;14.93;9.27;;;15.80;96.20;;;;;;5030131;28;20373;-76
2021/09/08 04:50:14;;;;;;;14.10;10.35;;;15.80;96.20;;;;;;5030504;28;20493;-80
2021/09/08 04:52:41;;;;;;;14.60;9.35;;;15.80;96.30;;;;;;5083892;28;20043;-80
2021/09/08 04:55:08;;;;;;;12.23;9.65;;;15.80;96.30;;;;;;5030012;28;20040;-80
2021/09/08 04:57:34;;;;;;;11.10;8.73;;;15.70;96.30;;;;;;5065324;28;20032;-80
2021/09/08 05:00:00;;;;;;;15.02;11.98;;;15.70;96.40;;;;;;5063207;28;20028;-80
2021/09/08 05:02:27;;;;;;;14.75;11.90;;;15.70;96.60;;;;;;5065674;28;20036;-80
2021/09/08 05:04:53;;;;;;;15.70;11.43;;;15.70;96.80;;;;;;5066561;28;20407;-80
2021/09/08 05:07:20;;;;;;;15.95;11.55;;;15.70;96.70;;;;;;5051653;28;20055;-86
2021/09/08 05:09:46;;;;;;;15.40;11.98;;;15.80;96.70;;;;;;5022423;28;20036;-81
2021/09/08 05:12:13;;;;;;;13.65;10.70;;;15.80;96.80;;;;;;5067202;28;20414;-81
2021/09/08 05:14:39;;;;;;;15.35;11.20;;;15.80;96.80;;;;;;5068647;28;20429;-79
2021/09/08 05:17:07;;;;;;;14.57;11.25;;;15.80;96.80;;;;;;5046671;28;20044;-82
2021/09/08 05:19:34;;;;;;;16.92;12.57;;;15.80;96.90;;;;;;5048576;28;20032;-80
2021/09/08 05:22:00;;;;;;;17.70;12.13;;;15.80;97.20;;;;;;5084058;28;20039;-81
2021/09/08 05:24:27;;;;;;;13.20;10.25;;;15.80;96.90;;;;;;5065324;28;20396;-80
2021/09/08 05:26:53;;;;;;;14.95;11.57;;;15.90;96.90;;;;;;5053458;28;20402;-80
2021/09/08 05:29:20;;;;;;;16.13;12.05;;;15.90;97.00;;;;;;5033565;28;20059;-80
2021/09/08 05:31:46;;;;;;;12.45;9.88;;;15.90;97.00;;;;;;5053214;28;20521;-80
2021/09/08 05:34:13;;;;;;;14.20;10.73;;;15.90;96.90;;;;;;5051938;28;20032;-80
2021/09/08 05:36:39;;;;;;;13.80;11.00;;;15.90;97.00;;;;;;5051399;28;20494;-80
2021/09/08 05:39:06;;;;;;;14.80;10.73;;;15.90;97.00;;;;;;5066869;28;20036;-80
2021/09/08 05:41:33;;;;;;;15.60;11.32;;;15.90;97.00;;;;;;5068714;28;20491;-80
2021/09/08 05:43:59;;;;;;;14.10;11.38;;;15.90;97.00;;;;;;5086913;28;20063;-76
2021/09/08 05:46:26;;;;;;;14.30;11.25;;;16.00;97.00;;;;;;5022727;28;20518;-76
2021/09/08 05:48:52;;;;;;;13.35;10.75;;;16.00;97.10;;;;;;5067059;28;20048;-76
2021/09/08 05:51:18;;;;;;;13.98;10.57;;;16.00;97.00;;;;;;5065051;28;20052;-76
2021/09/08 05:53:45;;;;;;;12.75;10.20;;;16.10;97.00;;;;;;5031203;28;20035;-76
2021/09/08 05:56:11;;;;;;;13.50;10.38;;;16.10;96.90;;;;;;5041061;28;20032;-76
2021/09/08 05:58:38;;;;;;;14.13;11.25;;;16.20;96.90;;;;;;5046158;28;20040;-76
2021/09/08 06:01:04;;;;;;;15.43;10.90;;;16.30;96.90;;;;;;5063012;28;20503;-76
2021/09/08 06:03:30;;;;;;;13.25;10.52;;;16.40;96.80;;;;;;5045050;28;20052;-76
2021/09/08 06:05:58;;;;;;;12.40;9.77;;;16.50;96.80;;;;;;5027457;28;20056;-76
2021/09/08 06:08:24;;;;;;;15.93;11.88;;;16.60;97.00;;;;;;5033319;28;20051;-76
2021/09/08 06:10:51;;;;;;;14.43;10.75;;;16.70;96.60;;;;;;5031832;28;20044;-76
2021/09/08 06:13:17;;;;;;;13.07;10.43;;;16.80;96.50;;;;;;5048891;28;20503;-76
2021/09/08 06:15:44;;;;;;;14.40;11.95;;;17.00;96.40;;;;;;5030828;28;20040;-76
2021/09/08 06:18:10;;;;;;;19.05;11.43;;;17.10;96.20;;;;;;5061237;28;20040;-76
2021/09/08 06:20:37;;;;;;;16.38;11.88;;;17.30;96.20;;;;;;5031728;28;20059;-76
2021/09/08 06:23:03;;;;;;;14.57;11.45;;;17.40;96.00;;;;;;5047642;28;20033;-76
2021/09/08 06:25:30;;;;;;;13.73;11.55;;;17.50;95.90;;;;;;5063629;28;20428;-76
2021/09/08 06:27:56;;;;;;;12.27;10.07;;;17.70;95.70;;;;;;5046340;28;20411;-76
2021/09/08 06:30:23;;;;;;;12.90;9.73;;;17.70;95.60;;;;;;5045563;28;20033;-76
2021/09/08 06:32:50;;;;;;;12.65;9.45;;;17.90;95.50;;;;;;5029274;28;20052;-76
2021/09/08 06:35:16;;;;;;;12.60;9.23;;;18.00;95.50;;;;;;5064198;28;20032;-76
2021/09/08 06:37:43;;;;;;;13.98;11.05;;;18.10;95.30;;;;;;5029444;28;20040;-77
2021/09/08 06:40:11;;;;;;;14.68;11.60;;;18.20;95.10;;;;;;5028603;28;20091;-76
2021/09/08 06:42:37;;;;;;;14.85;11.85;;;18.30;95.00;;;;;;5063285;28;20586;-78
2021/09/08 06:45:04;;;;;;;13.57;10.95;;;18.40;94.80;;;;;;5029164;28;20052;-76
2021/09/08 06:47:31;;;;;;;14.00;11.35;;;18.50;94.80;;;;;;5028292;28;20465;-76
2021/09/08 06:49:57;;;;;;;16.20;12.18;;;18.60;94.70;;;;;;5042833;28;20047;-76
2021/09/08 06:52:24;;;;;;;12.25;10.77;;;18.70;94.50;;;;;;5064109;28;20028;-75
2021/09/08 06:54:50;;;;;;;14.70;11.13;;;18.80;94.40;;;;;;5047018;28;20092;-76
2021/09/08 06:57:16;;;;;;;15.00;12.20;;;18.90;94.20;;;;;;5063710;28;20055;-75
2021/09/08 06:59:44;;;;;;;13.40;10.13;;;18.90;94.00;;;;;;5030392;28;20044;-76
2021/09/08 07:02:11;;;;;;;12.55;10.05;;;19.10;94.00;;;;;;5061880;28;20582;-75
2021/09/08 07:04:38;;;;;;;12.77;9.73;;;19.20;93.80;;;;;;5065994;28;20032;-75
2021/09/08 07:07:04;;;;;;;11.35;9.38;;;19.30;93.80;;;;;;5078248;28;20352;-75
2021/09/08 07:09:31;;;;;;;13.10;10.38;;;19.40;93.70;;;;;;5063495;28;20036;-75
2021/09/08 07:11:58;;;;;;;14.80;10.43;;;19.50;93.50;;;;;;5061809;28;20036;-75
2021/09/08 07:14:24;;;;;;;15.07;10.88;;;19.70;93.40;;;;;;5046026;28;20408;-76
2021/09/08 07:16:52;;;;;;;16.98;12.20;;;19.80;93.20;;;;;;5047689;28;20044;-76
2021/09/08 07:19:19;;;;;;;14.43;10.15;;;19.90;93.00;;;;;;5042935;28;20032;-76
2021/09/08 07:21:45;;;;;;;12.68;10.30;;;19.90;92.90;;;;;;5031403;28;20044;-76
2021/09/08 07:24:11;;;;;;;11.70;10.13;;;20.00;92.80;;;;;;5061200;28;20047;-76
2021/09/08 07:26:38;;;;;;;12.27;10.90;;;20.10;92.70;;;;;;5065863;28;20055;-76
2021/09/08 07:29:05;;;;;;;12.02;10.73;;;20.20;92.60;;;;;;5045852;28;20067;-76
2021/09/08 07:31:32;;;;;;;11.68;10.43;;;20.30;92.50;;;;;;5084618;28;20040;-76
2021/09/08 07:33:58;;;;;;;12.38;10.40;;;20.40;92.30;;;;;;5050823;28;20032;-78
2021/09/08 07:36:25;;;;;;;13.80;11.02;;;20.50;92.20;;;;;;5049286;28;20032;-76
2021/09/08 07:38:52;;;;;;;10.98;9.27;;;20.60;92.10;;;;;;5083879;28;20054;-76
2021/09/08 07:41:20;;;;;;;11.82;10.27;;;20.70;92.00;;;;;;5064995;28;20051;-75
2021/09/08 07:43:47;;;;;;;11.45;9.85;;;20.80;91.90;;;;;;5032930;28;20143;-75
2021/09/08 07:46:14;;;;;;;14.27;10.13;;;21.00;91.70;;;;;;5083868;28;20028;-75
2021/09/08 07:48:41;;;;;;;11.75;10.30;;;21.00;91.50;;;;;;5046492;28;20045;-76
2021/09/08 07:51:08;;;;;;;10.80;8.32;;;21.10;91.50;;;;;;5036572;28;20063;-75
2021/09/08 07:53:35;;;;;;;11.07;9.75;;;21.10;91.20;;;;;;5048323;28;20388;-76
2021/09/08 07:56:02;;;;;;;14.00;11.00;;;21.20;91.00;;;;;;5084878;28;20035;-76
2021/09/08 07:58:28;;;;;;;13.30;10.02;;;21.30;90.90;;;;;;5048011;28;20032;-75
2021/09/08 08:00:59;;;;;;;12.70;10.27;;;21.30;90.70;;;;;;5064574;28;20044;-76
2021/09/08 08:03:25;;;;;;;12.15;10.45;;;21.40;90.80;;;;;;5049065;28;20036;-75
2021/09/08 08:05:52;;;;;;;11.30;9.18;;;21.50;90.50;;;;;;5065821;28;20065;-75
2021/09/08 08:08:19;;;;;;;12.43;10.27;;;21.60;90.50;;;;;;5082841;28;20332;-76
2021/09/08 08:10:46;;;;;;;12.02;9.85;;;21.70;90.40;;;;;;5066243;28;20032;-76
2021/09/08 08:13:13;;;;;;;11.05;9.88;;;21.70;90.40;;;;;;5046925;28;20084;-76
2021/09/08 08:15:40;;;;;;;16.35;11.82;;;21.80;90.20;;;;;;5081599;28;20032;-76
2021/09/08 08:18:06;;;;;;;13.50;8.95;;;21.90;90.00;;;;;;5060329;28;20039;-76
2021/09/08 08:20:34;;;;;;;13.38;10.73;;;21.90;90.00;;;;;;5064406;28;20075;-75
2021/09/08 08:23:02;;;;;;;11.85;9.15;;;22.10;90.00;;;;;;5083503;28;20040;-75
2021/09/08 08:25:29;;;;;;;16.17;11.88;;;22.20;89.90;;;;;;5048870;28;20040;-76
2021/09/08 08:27:58;;;;;;;13.80;10.63;;;22.30;89.40;;;;;;5083662;28;20047;-76
2021/09/08 08:30:25;;;;;;;13.85;11.25;;;22.40;89.30;;;;;;5083604;28;20039;-76
2021/09/08 08:32:54;;;;;;;12.40;10.85;;;22.50;89.00;;;;;;5084342;28;20044;-76
2021/09/08 08:35:22;;;;;;;16.05;13.00;;;22.60;88.10;;;;;;5048587;28;20048;-76
2021/09/08 08:37:51;;;;;;;13.35;10.07;;;22.60;88.00;;;;;;5048126;28;20044;-76
2021/09/08 08:40:20;;;;;;;11.88;10.57;;;22.60;88.20;;;;;;5085319;28;20040;-76
2021/09/08 08:42:47;;;;;;;12.52;9.52;;;22.60;88.30;;;;;;5085977;28;20035;-76
2021/09/08 08:45:14;;;;;;;10.35;8.40;;;22.70;88.60;;;;;;5067651;28;20066;-83
2021/09/08 08:47:41;;;;;;;11.75;10.07;;;22.90;88.50;;;;;;5068478;28;20040;-83
2021/09/08 08:50:10;;;;;;;12.65;9.60;;;23.00;88.20;;;;;;5051714;28;20045;-83
2021/09/08 08:52:37;;;;;;;12.50;11.18;;;23.10;87.90;;;;;;5087650;28;20044;-82
2021/09/08 08:55:05;;;;;;;15.25;11.68;;;23.20;87.50;;;;;;5069436;28;20032;-82
2021/09/08 08:57:31;;;;;;;13.70;12.20;;;23.40;87.10;;;;;;5068790;28;20028;-83
2021/09/08 08:59:58;;;;;;;11.70;10.18;;;23.50;86.80;;;;;;5066747;28;20044;-83
2021/09/08 09:02:29;;;;;;;11.27;9.13;;;23.60;87.00;;;;;;5087697;28;20110;-83
2021/09/08 09:04:58;;;;;;;13.95;10.25;;;23.70;86.90;;;;;;5068936;28;20039;-81
2021/09/08 09:07:29;;;;;;;11.77;10.20;;;23.80;86.50;;;;;;5086235;28;20483;-81
2021/09/08 09:09:58;;;;;;;10.65;9.55;;;24.00;86.20;;;;;;5067781;28;20407;-83
2021/09/08 09:12:28;;;;;;;10.65;9.50;;;24.10;86.00;;;;;;5069475;28;20387;-82
2021/09/08 09:14:58;;;;;;;13.00;10.85;;;24.20;85.30;;;;;;5049345;28;20044;-83
2021/09/08 09:17:27;;;;;;;12.57;8.98;;;24.30;84.70;;;;;;5052766;28;20043;-82
2021/09/08 09:19:54;;;;;;;10.60;9.20;;;24.50;84.70;;;;;;5087140;28;20031;-82
2021/09/08 09:22:33;;;;;;;12.95;9.52;;;24.60;84.30;;;;;;5087361;28;20031;-84
2021/09/08 09:24:59;;;;;;;11.52;9.57;;;24.60;83.90;;;;;;5087726;28;20042;-84
2021/09/08 09:27:26;;;;;;;10.65;9.55;;;24.70;83.60;;;;;;5062771;28;20032;-84
2021/09/08 09:30:09;;;;;;;12.00;9.88;;;24.80;83.40;;;;;;5069287;28;20478;-81
2021/09/08 09:32:41;;;;;;;10.85;9.48;;;25.00;82.60;;;;;;5051102;28;20048;-81
2021/09/08 09:35:11;;;;;;;12.25;10.98;;;25.00;82.40;;;;;;5086795;28;20035;-81
2021/09/08 09:38:05;;;;;;;13.80;9.05;;;25.10;82.30;;;;;;5085863;28;20027;-81
2021/09/08 09:40:37;;;;;;;12.25;9.15;;;25.30;82.40;;;;;;5065840;28;20048;-82
2021/09/08 09:43:09;;;;;;;8.88;7.90;;;25.40;82.20;;;;;;5048788;28;20055;-81
2021/09/08 09:45:41;;;;;;;14.32;10.52;;;25.60;81.90;;;;;;5068325;28;20039;-81
2021/09/08 09:48:08;;;;;;;10.55;8.52;;;25.80;81.20;;;;;;5060878;28;20048;-81
2021/09/08 09:50:35;;;;;;;11.48;10.27;;;25.90;81.00;;;;;;5086428;28;20514;-81
2021/09/08 09:53:03;;;;;;;11.15;9.75;;;25.90;79.80;;;;;;5066900;28;20055;-81
2021/09/08 09:55:30;;;;;;;11.45;10.13;;;25.90;79.30;;;;;;5068493;28;20040;-82
2021/09/08 09:57:57;;;;;;;11.75;9.10;;;26.00;79.10;;;;;;5049745;28;20044;-81
2021/09/08 10:00:24;;;;;;;9.38;8.40;;;26.20;79.30;;;;;;5033364;28;20447;-81
2021/09/08 10:02:52;;;;;;;14.65;11.25;;;26.30;78.90;;;;;;5066882;28;20052;-82
2021/09/08 10:05:18;;;;;;;12.40;8.32;;;26.40;78.20;;;;;;5068079;28;20036;-81
2021/09/08 10:07:45;;;;;;;8.63;7.80;;;26.40;77.60;;;;;;5066613;28;20040;-81
2021/09/08 10:10:16;;;;;;;12.63;9.48;;;26.50;77.70;;;;;;5067913;28;20031;-81
2021/09/08 10:12:54;;;;;;;8.57;7.68;;;26.60;77.10;;;;;;5050893;28;20499;-81
2021/09/08 10:15:22;;;;;;;12.30;10.32;;;26.70;77.10;;;;;;5048484;28;20542;-81
2021/09/08 10:17:48;;;;;;;9.90;8.88;;;26.90;76.40;;;;;;5049253;28;20537;-81
2021/09/08 10:20:21;;;;;;;9.82;7.63;;;27.00;75.80;;;;;;5034893;28;20036;-81
2021/09/08 10:22:49;;;;;;;12.60;9.05;;;27.20;76.50;;;;;;5066432;28;20394;-81
2021/09/08 10:25:22;;;;;;;10.75;8.38;;;27.40;74.30;;;;;;5068491;28;20032;-84
2021/09/08 10:27:54;;;;;;;10.00;8.88;;;27.60;74.10;;;;;;5061439;28;20036;-86
2021/09/08 10:30:24;;;;;;;11.40;8.75;;;27.90;74.10;;;;;;5054936;28;20040;-87
2021/09/08 10:32:52;;;;;;;8.38;7.15;;;28.00;71.70;;;;;;5046437;28;20032;-88
2021/09/08 10:35:20;;;;;;;9.32;8.43;;;28.20;72.30;;;;;;5061372;28;20024;-87
2021/09/08 10:37:51;;;;;;;8.52;7.40;;;28.50;71.20;;;;;;5079488;28;20039;-87
2021/09/08 10:40:23;;;;;;;8.00;7.18;;;28.70;71.10;;;;;;5049777;28;20488;-87
2021/09/08 10:42:51;;;;;;;8.27;7.32;;;29.10;71.10;;;;;;5079997;28;20079;-88
2021/09/08 10:45:29;;;;;;;11.45;7.35;;;29.40;70.50;;;;;;5049572;28;20041;-88
2021/09/08 10:47:58;;;;;;;9.23;6.85;;;29.80;68.90;;;;;;5081118;28;20396;-77
2021/09/08 10:50:42;;;;;;;8.52;7.18;;;30.00;68.10;;;;;;5061033;28;20062;-75
2021/09/08 10:53:21;;;;;;;10.13;8.50;;;30.30;67.70;;;;;;5049691;28;20039;-76
2021/09/08 10:55:50;;;;;;;9.43;8.52;;;30.60;65.50;;;;;;5083770;28;20063;-76
2021/09/08 10:58:17;;;;;;;9.05;8.15;;;30.60;64.30;;;;;;5083450;28;20035;-75
2021/09/08 11:00:44;;;;;;;8.50;7.70;;;30.70;64.50;;;;;;5083757;28;20028;-76
2021/09/08 11:03:14;;;;;;;8.13;6.75;;;30.90;64.20;;;;;;5065866;28;20493;-76
2021/09/08 11:05:57;;;;;;;8.85;7.18;;;31.10;63.90;;;;;;5084740;28;20066;-76
2021/09/08 11:08:28;;;;;;;7.55;6.85;;;31.40;62.90;;;;;;5083228;28;20066;-76
2021/09/08 11:11:12;;;;;;;8.02;7.32;;;31.60;62.90;;;;;;5066022;28;20059;-76
2021/09/08 11:13:40;;;;;;;8.00;7.05;;;31.90;61.90;;;;;;5065829;28;20062;-76
2021/09/08 11:16:28;;;;;;;7.43;6.78;;;32.20;61.10;;;;;;5069000;28;20043;-76
2021/09/08 11:18:57;;;;;;;7.32;6.57;;;32.60;60.40;;;;;;5080567;28;20020;-78
2021/09/08 11:21:28;;;;;;;7.28;6.57;;;32.90;59.50;;;;;;5079819;28;20024;-78
2021/09/08 11:24:04;;;;;;;9.13;7.00;;;33.30;59.30;;;;;;5080124;28;20032;-78
2021/09/08 11:26:32;;;;;;;10.80;7.75;;;33.60;57.20;;;;;;5061241;28;20055;-79
2021/09/08 11:29:06;;;;;;;9.98;6.22;;;33.70;56.40;;;;;;5079664;28;20044;-78
2021/09/08 11:31:42;;;;;;;6.50;5.82;;;33.80;56.00;;;;;;5063973;28;20080;-79
2021/09/08 11:34:19;;;;;;;7.43;6.80;;;33.90;55.70;;;;;;5077890;28;20024;-79
2021/09/08 11:36:46;;;;;;;7.38;6.55;;;34.10;54.50;;;;;;5059015;28;20032;-79
2021/09/08 11:39:14;;;;;;;6.50;5.88;;;34.30;54.80;;;;;;5059084;28;20048;-78
2021/09/08 11:42:04;;;;;;;8.60;6.70;;;34.60;54.00;;;;;;5048165;28;20040;-78
2021/09/08 11:44:33;;;;;;;6.93;6.13;;;34.80;52.90;;;;;;5063747;28;20048;-79
2021/09/08 11:46:59;;;;;;;18.02;7.43;;;35.00;52.40;;;;;;5043338;28;20395;-79
2021/09/08 11:49:26;;;;;;;8.13;7.38;;;35.10;51.80;;;;;;5061011;28;20055;-79
2021/09/08 11:51:52;;;;;;;6.95;6.32;;;35.20;50.90;;;;;;5062941;28;20118;-79
2021/09/08 11:54:24;;;;;;;7.40;6.80;;;35.30;50.80;;;;;;5084008;28;20032;-78
2021/09/08 11:56:58;;;;;;;7.30;6.30;;;35.40;50.60;;;;;;5048556;28;20036;-79
2021/09/08 11:59:27;;;;;;;9.18;6.65;;;35.70;50.70;;;;;;5046372;28;20387;-78
2021/09/08 12:01:54;;;;;;;6.18;5.60;;;35.90;50.40;;;;;;5083808;28;20043;-79
2021/09/08 12:04:23;;;;;;;8.07;6.15;;;36.30;50.10;;;;;;5047921;28;20047;-78
2021/09/08 12:07:03;;;;;;;7.95;6.40;;;36.60;49.20;;;;;;5063532;28;20040;-79
2021/09/08 12:09:35;;;;;;;6.10;5.47;;;36.80;48.00;;;;;;5031610;28;20044;-78
2021/09/08 12:12:02;;;;;;;;;;;36.90;47.50;;;;;;5063695;28;20032;-77
2021/09/08 12:14:38;;;;;;;6.50;5.90;;;36.90;46.70;;;;;;5060526;28;20359;-77
2021/09/08 12:17:25;;;;;;;7.78;7.03;;;36.90;46.80;;;;;;5059996;28;20387;-77
2021/09/08 12:20:06;;;;;;;7.75;6.35;;;37.00;47.00;;;;;;5046720;28;20050;-78
2021/09/08 12:22:35;;;;;;;;;;;37.20;46.10;;;;;;5064073;28;20522;-77
2021/09/08 12:25:03;;;;;;;8.80;6.50;;;37.30;45.90;;;;;;5079427;28;20260;-78
2021/09/08 12:27:35;;;;;;;6.90;5.85;;;37.40;45.90;;;;;;5046453;28;20039;-77
2021/09/08 12:30:28;;;;;;;6.95;6.10;;;37.40;45.40;;;;;;5063316;28;20356;-79
2021/09/08 12:32:59;;;;;;;6.28;5.68;;;37.50;45.60;;;;;;5062063;28;20047;-79
2021/09/08 12:35:40;;;;;;;6.70;6.10;;;37.60;45.40;;;;;;5083967;28;20032;-79
2021/09/08 12:38:35;;;;;;;7.10;6.28;;;37.90;45.10;;;;;;5078709;28;20621;-78
2021/09/08 12:41:15;;;;;;;6.72;5.85;;;38.00;44.10;;;;;;5046259;28;20058;-78